EFET

Enontekio Airport

Enontekio, Finland
METAR EFET 211520Z AUTO 12004KT 090V170 9999 OVC019 M01/M04 Q1003
Observed Flight Rules
Apr-21 @ 15:20 UTC (19 minutes ago) Marginal Visual Flight Rules
Wind Visibility Clouds
120° at 4 knots 10,000+ meters
  • Overcast at 1,900' AGL
Temperatures Readings
Current -1°C / 30°F
Dewpoint -4°C / 25°F
Humidity 80%
Altimeter 29.62" Hg
Pressure 1003 hPa
Elevation 306
METAR EFET 211520Z AUTO 12004KT 090V170 9999 OVC019 M01/M04 Q1003
Observed Flight Rules
Apr-21 @ 15:20 UTC
(19 minutes ago)
MVFR
Wind Visibility
120° at 4 knots 10,000+ meters
Clouds
  • Overcast at 1,900' AGL
Temperature Dewpoint
-1°C / 30°F -4°C / 25°F
Humidity Altimeter Pressure
80% 29.62" Hg 1003 hPa